.
WxDataArchive / Data Records for 2006-03-07
2006-03-06 March 2006 2006-03-08

Data Records for Tuesday, 07 March 2006

Time	Temp	Chill	HIndex	Humid	Dewpt	 Wind 	HiWind	WindDir	Rain 	Barom 
-----	----	-----	------	-----	-----	------	------	-------	-----	----- 
00:00	28.1	28.1	28.1	85	24.2	0	1	338	0.00	30.288 
00:05	27.9	27.9	27.9	85	24.0	0	1	338	0.00	30.288 
00:10	27.9	27.9	27.9	85	24.0	0	1	292	0.00	30.288 
00:15	27.9	27.9	27.9	84	23.7	0	2	338	0.00	30.287 
00:20	27.9	27.9	27.9	84	23.7	0	2	338	0.00	30.287 
00:25	27.9	27.9	27.9	83	23.4	0	1	338	0.00	30.287 
00:30	27.8	27.8	27.8	83	23.3	0	1	338	0.00	30.286 
00:35	27.8	27.8	27.8	82	23.0	0	1	338	0.00	30.286 
00:40	27.6	27.6	27.6	82	22.8	0	1	338	0.00	30.286 
00:45	27.5	27.5	27.5	82	22.7	0	1	338	0.00	30.291 
00:50	27.5	27.5	27.5	82	22.7	0	1	338	0.00	30.291 
00:55	27.3	27.3	27.3	82	22.5	0	1	338	0.00	30.291 
01:00	27.2	27.2	27.2	81	22.2	0	0	---	0.00	30.294 
01:05	27.0	27.0	27.0	81	22.0	0	1	338	0.00	30.294 
01:10	27.0	27.0	27.0	81	22.0	0	1	338	0.00	30.294 
01:15	26.9	26.9	26.9	80	21.6	0	2	338	0.00	30.294 
01:20	26.9	26.9	26.9	80	21.6	0	0	---	0.00	30.294 
01:25	26.7	26.7	26.7	80	21.4	0	1	338	0.00	30.294 
01:30	26.6	26.6	26.6	80	21.3	0	0	---	0.00	30.290 
01:35	26.3	26.3	26.3	80	21.0	0	0	---	0.00	30.290 
01:40	26.0	26.0	26.0	80	20.7	0	0	---	0.00	30.290 
01:45	25.7	25.7	25.7	80	20.4	0	0	---	0.00	30.296 
01:50	25.6	25.6	25.6	81	20.6	0	2	338	0.00	30.296 
01:55	25.4	25.4	25.4	81	20.4	0	0	---	0.00	30.296 
02:00	25.1	25.1	25.1	81	20.1	0	0	---	0.00	30.299 
02:05	24.8	24.8	24.8	81	19.8	0	0	---	0.00	30.299 
02:10	24.5	24.5	24.5	82	19.8	0	0	---	0.00	30.299 
02:15	24.2	24.2	24.2	82	19.5	0	0	---	0.00	30.299 
02:20	23.9	23.9	23.9	82	19.2	0	0	---	0.00	30.299 
02:25	23.5	23.5	23.5	83	19.1	0	0	---	0.00	30.299 
02:30	23.0	23.0	23.0	84	18.9	0	0	---	0.00	30.299 
02:35	22.7	22.7	22.7	84	18.6	0	0	---	0.00	30.299 
02:40	22.4	22.4	22.4	85	18.6	0	0	---	0.00	30.299 
02:45	22.1	22.1	22.1	85	18.3	0	0	---	0.00	30.295 
02:50	21.9	21.9	21.9	85	18.1	0	0	---	0.00	30.295 
02:55	21.6	21.6	21.6	86	18.1	0	0	---	0.00	30.295 
03:00	21.4	21.4	21.4	86	17.9	0	0	---	0.00	30.306 
03:05	21.4	21.4	21.4	87	18.1	0	0	---	0.00	30.306 
03:10	21.4	21.4	21.4	88	18.4	0	0	---	0.00	30.306 
03:15	21.6	21.6	21.6	88	18.6	0	0	---	0.00	30.306 
03:20	21.4	21.4	21.4	88	18.4	0	0	---	0.00	30.306 
03:25	21.4	21.4	21.4	88	18.4	0	0	---	0.00	30.306 
03:30	21.3	21.3	21.3	88	18.3	0	0	---	0.00	30.311 
03:35	21.1	21.1	21.1	88	18.1	0	0	---	0.00	30.311 
03:40	21.1	21.1	21.1	88	18.1	0	0	---	0.00	30.311 
03:45	21.0	21.0	21.0	88	18.0	0	0	---	0.00	30.314 
03:50	20.8	20.8	20.8	88	17.8	0	0	---	0.00	30.314 
03:55	20.8	20.8	20.8	88	17.8	0	0	---	0.00	30.314 
04:00	20.6	20.6	20.6	88	17.6	0	0	---	0.00	30.321 
04:05	20.6	20.6	20.6	88	17.6	0	0	---	0.00	30.321 
04:10	20.6	20.6	20.6	88	17.6	0	0	---	0.00	30.321 
04:15	20.5	20.5	20.5	88	17.5	0	0	---	0.00	30.324 
04:20	20.5	20.5	20.5	87	17.3	0	0	---	0.00	30.324 
04:25	20.3	20.3	20.3	87	17.1	0	0	---	0.00	30.324 
04:30	20.0	20.0	20.0	87	16.8	0	0	---	0.00	30.325 
04:35	19.7	19.7	19.7	87	16.5	0	0	---	0.00	30.325 
04:40	19.5	19.5	19.5	87	16.3	0	0	---	0.00	30.325 
04:45	19.2	19.2	19.2	87	16.0	0	0	---	0.00	30.339 
04:50	19.1	19.1	19.1	87	15.9	0	0	---	0.00	30.339 
04:55	19.1	19.1	19.1	87	15.9	0	0	---	0.00	30.339 
05:00	18.9	18.9	18.9	88	15.9	0	0	---	0.00	30.340 
05:05	19.1	19.1	19.1	88	16.1	0	0	---	0.00	30.340 
05:10	18.9	18.9	18.9	88	15.9	0	0	---	0.00	30.340 
05:15	18.8	18.8	18.8	88	15.8	0	0	---	0.00	30.345 
05:20	18.6	18.6	18.6	88	15.6	0	0	---	0.00	30.345 
05:25	18.3	18.3	18.3	87	15.1	0	0	---	0.00	30.345 
05:30	18.0	18.0	18.0	87	14.8	0	0	---	0.00	30.348 
05:35	17.8	17.8	17.8	88	14.9	0	0	---	0.00	30.348 
05:40	17.8	17.8	17.8	88	14.9	0	0	---	0.00	30.348 
05:45	17.7	17.7	17.7	88	14.8	0	0	---	0.00	30.356 
05:50	17.7	17.7	17.7	88	14.8	0	0	---	0.00	30.356 
05:55	17.8	17.8	17.8	88	14.9	0	0	---	0.00	30.356 
06:00	17.8	17.8	17.8	88	14.9	0	0	---	0.00	30.358 
06:05	17.8	17.8	17.8	88	14.9	0	0	---	0.00	30.358 
06:10	17.8	17.8	17.8	88	14.9	0	0	---	0.00	30.358 
06:15	18.0	18.0	18.0	89	15.3	0	0	---	0.00	30.362 
06:20	18.1	18.1	18.1	89	15.4	0	0	---	0.00	30.362 
06:25	18.3	18.3	18.3	89	15.6	0	0	---	0.00	30.362 
06:30	18.1	18.1	18.1	88	15.2	0	0	---	0.00	30.366 
06:35	18.1	18.1	18.1	88	15.2	0	0	---	0.00	30.366 
06:40	18.1	18.1	18.1	88	15.2	0	0	---	0.00	30.366 
06:45	17.8	17.8	17.8	88	14.9	0	0	---	0.00	30.373 
06:50	17.7	17.7	17.7	87	14.5	0	0	---	0.00	30.373 
06:55	17.5	17.5	17.5	87	14.3	0	0	---	0.00	30.373 
07:00	17.2	17.2	17.2	87	14.0	0	0	---	0.00	30.369 
07:05	17.2	17.2	17.2	87	14.0	0	0	---	0.00	30.369 
07:10	17.2	17.2	17.2	87	14.0	0	0	---	0.00	30.369 
07:15	17.2	17.2	17.2	87	14.0	0	0	---	0.00	30.368 
07:20	17.2	17.2	17.2	87	14.0	0	0	---	0.00	30.368 
07:25	17.3	17.3	17.3	88	14.4	0	0	---	0.00	30.368 
07:30	17.7	17.7	17.7	88	14.8	0	0	---	0.00	30.373 
07:35	18.0	18.0	18.0	88	15.1	0	0	---	0.00	30.373 
07:40	18.4	18.4	18.4	88	15.5	0	0	---	0.00	30.373 
07:45	18.9	18.9	18.9	89	16.2	0	0	---	0.00	30.376 
07:50	19.4	19.4	19.4	88	16.4	0	0	---	0.00	30.376 
07:55	19.9	19.9	19.9	87	16.7	0	0	---	0.00	30.376 
08:00	20.5	20.5	20.5	86	17.0	0	0	---	0.00	30.381 
08:05	21.1	21.1	21.1	85	17.3	0	0	---	0.00	30.381 
08:10	21.8	21.8	21.8	86	18.3	0	0	---	0.00	30.381 
08:15	22.9	22.9	22.9	82	18.2	0	1	338	0.00	30.388 
08:20	23.9	23.9	23.9	78	18.1	0	1	338	0.00	30.388 
08:25	24.8	24.8	24.8	76	18.3	0	2	338	0.00	30.388 
08:30	25.7	25.7	25.7	74	18.6	1	2	22	0.00	30.388 
08:35	26.6	26.6	26.6	74	19.5	1	3	45	0.00	30.388 
08:40	27.0	27.0	27.0	70	18.5	2	4	112	0.00	30.388 
08:45	27.3	27.3	27.3	71	19.2	1	3	90	0.00	30.393 
08:50	27.8	27.8	27.8	69	19.0	2	4	90	0.00	30.393 
08:55	28.1	28.1	28.1	71	19.9	1	3	90	0.00	30.393 
09:00	28.7	28.7	28.7	70	20.2	1	3	90	0.00	30.398 
09:05	29.3	29.3	29.3	70	20.8	1	3	90	0.00	30.398 
09:10	29.8	29.8	29.8	69	20.9	1	3	90	0.00	30.398 
09:15	30.3	30.3	30.3	66	20.3	1	3	112	0.00	30.404 
09:20	30.3	30.3	30.3	66	20.3	2	3	90	0.00	30.404 
09:25	30.6	30.6	30.6	67	21.0	2	4	112	0.00	30.404 
09:30	31.2	31.2	31.2	65	20.8	1	3	112	0.00	30.397 
09:35	31.2	31.2	31.2	65	20.8	3	6	112	0.00	30.397 
09:40	31.3	31.3	31.3	65	20.9	2	4	90	0.00	30.397 
09:45	31.8	31.8	31.8	67	22.1	2	4	135	0.00	30.391 
09:50	31.8	31.8	31.8	65	21.4	3	5	90	0.00	30.391 
09:55	31.8	31.8	31.8	67	22.1	3	5	90	0.00	30.391 
10:00	32.5	32.5	32.5	68	23.1	1	3	112	0.00	30.381 
10:05	32.4	28.5	32.4	66	22.3	4	9	90	0.00	30.381 
10:10	32.4	32.4	32.4	67	22.7	3	6	90	0.00	30.381 
10:15	32.9	32.9	32.9	66	22.8	1	5	90	0.00	30.379 
10:20	33.7	33.7	33.7	65	23.2	3	7	90	0.00	30.379 
10:25	33.5	29.8	33.5	64	22.6	4	7	90	0.00	30.379 
10:30	32.9	28.1	32.9	65	22.4	5	10	112	0.00	30.367 
10:35	33.4	33.4	33.4	63	22.2	3	6	112	0.00	30.367 
10:40	33.7	30.0	33.7	62	22.1	4	11	112	0.00	30.367 
10:45	33.7	33.7	33.7	63	22.5	3	6	112	0.00	30.371 
10:50	33.8	33.8	33.8	65	23.3	3	9	112	0.00	30.371 
10:55	34.1	30.5	34.1	61	22.1	4	10	90	0.00	30.371 
11:00	34.4	34.4	34.4	60	22.0	3	7	90	0.00	30.375 
11:05	34.4	34.4	34.4	62	22.7	3	6	90	0.00	30.375 
11:10	34.7	34.7	34.7	64	23.8	3	6	90	0.00	30.375 
11:15	34.9	31.4	34.9	63	23.6	4	8	112	0.00	30.367 
11:20	35.3	35.3	35.3	65	24.7	2	5	112	0.00	30.367 
11:25	35.5	32.1	35.5	58	22.2	4	8	90	0.01	30.367 
11:30	35.3	31.9	35.3	59	22.4	4	10	90	0.00	30.360 
11:35	35.9	35.9	35.9	62	24.2	2	4	112	0.00	30.360 
11:40	36.5	36.5	36.5	58	23.1	3	7	90	0.00	30.360 
11:45	36.8	36.8	36.8	60	24.2	2	5	68	0.00	30.360 
11:50	36.9	36.9	36.9	57	23.1	2	6	90	0.00	30.360 
11:55	36.9	36.9	36.9	59	23.9	2	6	90	0.00	30.360 
12:00	37.0	37.0	37.0	57	23.2	2	4	90	0.00	30.361 
12:05	37.3	37.3	37.3	53	21.8	3	7	112	0.00	30.361 
12:10	37.2	34.1	37.2	55	22.5	4	8	112	0.00	30.361 
12:15	36.9	36.9	36.9	58	23.5	3	6	112	0.00	30.346 
12:20	37.3	37.3	37.3	59	24.3	2	5	90	0.00	30.346 
12:25	38.0	38.0	38.0	58	24.6	2	5	90	0.00	30.346 
12:30	37.9	37.9	37.9	54	22.8	3	7	112	0.00	30.352 
12:35	37.9	37.9	37.9	59	24.9	3	9	112	0.00	30.352 
12:40	38.0	38.0	38.0	55	23.3	3	9	90	0.00	30.352 
12:45	38.2	38.2	38.2	59	25.2	2	6	90	0.00	30.349 
12:50	38.5	38.5	38.5	57	24.6	2	7	90	0.00	30.349 
12:55	38.5	38.5	38.5	58	25.0	2	7	90	0.00	30.349 
13:00	38.6	38.6	38.6	60	25.9	2	6	112	0.00	30.341 
13:05	38.9	38.9	38.9	58	25.4	2	6	90	0.00	30.341 
13:10	39.1	39.1	39.1	59	26.0	2	5	112	0.00	30.341 
13:15	39.1	39.1	39.1	56	24.7	2	8	90	0.00	30.338 
13:20	39.1	39.1	39.1	56	24.7	2	6	112	0.00	30.338 
13:25	39.3	39.3	39.3	56	24.9	1	4	90	0.00	30.338 
13:30	39.6	39.6	39.6	52	23.4	3	7	90	0.00	30.329 
13:35	39.6	39.6	39.6	53	23.9	1	3	112	0.00	30.329 
13:40	39.8	39.8	39.8	51	23.2	2	5	135	0.00	30.329 
13:45	40.2	40.2	40.2	55	25.3	1	4	112	0.00	30.322 
13:50	40.2	40.2	40.2	53	24.5	2	6	112	0.00	30.322 
13:55	40.2	40.2	40.2	50	23.1	2	5	90	0.00	30.322 
14:00	39.9	39.9	39.9	53	24.2	2	6	90	0.00	30.313 
14:05	40.1	40.1	40.1	55	25.2	2	4	90	0.00	30.313 
14:10	40.3	40.3	40.3	50	23.2	2	4	90	0.00	30.313 
14:15	40.2	40.2	40.2	49	22.6	2	6	90	0.00	30.312 
14:20	40.5	40.5	40.5	53	24.7	3	6	68	0.00	30.312 
14:25	40.3	40.3	40.3	49	22.7	2	4	112	0.00	30.312 
14:30	40.3	40.3	40.3	47	21.7	2	4	135	0.00	30.311 
14:35	40.3	40.3	40.3	50	23.2	2	7	112	0.00	30.311 
14:40	40.5	40.5	40.5	48	22.4	1	4	112	0.00	30.311 
14:45	40.6	40.6	40.6	50	23.4	2	4	112	0.00	30.302 
14:50	40.6	40.6	40.6	50	23.4	2	5	112	0.00	30.302 
14:55	40.8	40.8	40.8	48	22.6	2	6	112	0.00	30.302 
15:00	40.9	40.9	40.9	49	23.2	2	4	90	0.00	30.294 
15:05	41.3	41.3	41.3	46	22.1	2	6	112	0.00	30.294 
15:10	41.3	41.3	41.3	49	23.6	1	6	90	0.00	30.294 
15:15	41.3	41.3	41.3	48	23.1	2	5	90	0.00	30.285 
15:20	41.5	41.5	41.5	46	22.3	1	3	112	0.00	30.285 
15:25	41.8	41.8	41.8	47	23.1	1	4	90	0.00	30.285 
15:30	42.1	42.1	42.1	48	23.8	1	6	270	0.00	30.273 
15:35	42.1	42.1	42.1	46	22.8	3	5	112	0.00	30.273 
15:40	42.1	42.1	42.1	50	24.8	2	5	112	0.00	30.273 
15:45	42.2	42.2	42.2	49	24.4	2	3	90	0.00	30.265 
15:50	42.2	42.2	42.2	48	23.9	2	6	112	0.00	30.265 
15:55	42.1	42.1	42.1	46	22.8	2	7	90	0.00	30.265 
16:00	42.2	42.2	42.2	45	22.4	1	4	112	0.00	30.257 
16:05	42.2	42.2	42.2	46	22.9	2	5	90	0.00	30.257 
16:10	42.2	42.2	42.2	48	23.9	2	5	112	0.00	30.257 
16:15	42.1	42.1	42.1	46	22.8	2	6	90	0.00	30.250 
16:20	41.9	41.9	41.9	48	23.7	2	5	90	0.00	30.250 
16:25	41.9	41.9	41.9	48	23.7	2	4	90	0.00	30.250 
16:30	42.1	42.1	42.1	48	23.8	2	5	112	0.00	30.240 
16:35	42.1	42.1	42.1	49	24.3	2	4	112	0.00	30.240 
16:40	41.9	41.9	41.9	50	24.6	1	4	90	0.00	30.240 
16:45	41.6	41.6	41.6	48	23.4	2	6	90	0.00	30.231 
16:50	41.5	41.5	41.5	50	24.3	2	6	90	0.00	30.231 
16:55	41.2	41.2	41.2	48	23.0	2	6	90	0.00	30.231 
17:00	41.1	41.1	41.1	48	22.9	2	4	90	0.00	30.217 
17:05	41.1	41.1	41.1	50	23.9	2	5	90	0.00	30.217 
17:10	41.1	41.1	41.1	50	23.9	2	5	68	0.00	30.217 
17:15	41.1	41.1	41.1	50	23.9	2	4	90	0.00	30.220 
17:20	41.1	41.1	41.1	52	24.8	2	5	112	0.00	30.220 
17:25	40.9	40.9	40.9	51	24.2	2	7	112	0.00	30.220 
17:30	40.8	40.8	40.8	51	24.1	1	3	112	0.00	30.212 
17:35	40.6	40.6	40.6	50	23.4	2	7	90	0.00	30.212 
17:40	40.6	40.6	40.6	50	23.4	1	3	112	0.00	30.212 
17:45	40.5	40.5	40.5	52	24.3	1	3	112	0.00	30.208 
17:50	40.3	40.3	40.3	52	24.1	1	3	135	0.00	30.208 
17:55	40.2	40.2	40.2	53	24.5	1	3	135	0.00	30.208 
18:00	40.1	40.1	40.1	53	24.4	1	3	90	0.00	30.207 
18:05	39.9	39.9	39.9	54	24.6	1	3	112	0.00	30.207 
18:10	39.8	39.8	39.8	55	25.0	1	4	135	0.00	30.207 
18:15	39.6	39.6	39.6	56	25.2	0	2	90	0.00	30.208 
18:20	39.5	39.5	39.5	56	25.1	0	2	112	0.00	30.208 
18:25	39.3	39.3	39.3	56	24.9	0	2	112	0.00	30.208 
18:30	39.2	39.2	39.2	56	24.8	1	2	112	0.00	30.206 
18:35	38.9	38.9	38.9	56	24.6	0	1	112	0.00	30.206 
18:40	38.8	38.8	38.8	56	24.5	0	1	112	0.00	30.206 
18:45	38.8	38.8	38.8	56	24.5	0	1	112	0.00	30.211 
18:50	38.5	38.5	38.5	57	24.6	0	1	112	0.00	30.211 
18:55	38.2	38.2	38.2	58	24.7	0	1	112	0.00	30.211 
19:00	37.9	37.9	37.9	59	24.9	0	1	112	0.00	30.200 
19:05	37.6	37.6	37.6	59	24.6	0	1	112	0.00	30.200 
19:10	37.5	37.5	37.5	59	24.5	0	1	135	0.00	30.200 
19:15	37.3	37.3	37.3	60	24.7	0	1	135	0.00	30.198 
19:20	37.0	37.0	37.0	60	24.4	0	1	135	0.00	30.198 
19:25	36.9	36.9	36.9	61	24.7	0	1	135	0.00	30.198 
19:30	36.8	36.8	36.8	62	25.0	0	1	135	0.00	30.192 
19:35	36.5	36.5	36.5	62	24.7	0	1	135	0.00	30.192 
19:40	36.3	36.3	36.3	62	24.5	0	0	---	0.00	30.192 
19:45	36.0	36.0	36.0	62	24.3	0	0	---	0.00	30.199 
19:50	35.9	35.9	35.9	63	24.5	0	0	---	0.00	30.199 
19:55	35.5	35.5	35.5	64	24.5	0	0	---	0.00	30.199 
20:00	35.3	35.3	35.3	64	24.4	0	0	---	0.00	30.201 
20:05	35.0	35.0	35.0	65	24.4	0	0	---	0.00	30.201 
20:10	34.9	34.9	34.9	65	24.3	0	0	---	0.00	30.201 
20:15	34.9	34.9	34.9	66	24.7	0	0	---	0.00	30.183 
20:20	35.0	35.0	35.0	65	24.4	0	2	135	0.00	30.183 
20:25	35.5	35.5	35.5	65	24.9	0	2	135	0.00	30.183 
20:30	35.8	35.8	35.8	65	25.2	1	2	135	0.00	30.173 
20:35	36.0	36.0	36.0	65	25.4	1	2	135	0.00	30.173 
20:40	36.0	36.0	36.0	65	25.4	1	2	135	0.00	30.173 
20:45	36.0	36.0	36.0	65	25.4	1	3	135	0.00	30.159 
20:50	36.0	36.0	36.0	64	25.0	2	3	112	0.00	30.159 
20:55	36.0	36.0	36.0	65	25.4	1	3	135	0.00	30.159 
21:00	36.0	36.0	36.0	65	25.4	1	3	135	0.00	30.157 
21:05	36.0	36.0	36.0	65	25.4	1	3	112	0.00	30.157 
21:10	36.0	36.0	36.0	65	25.4	1	2	90	0.00	30.157 
21:15	36.0	36.0	36.0	65	25.4	1	3	90	0.00	30.160 
21:20	36.0	36.0	36.0	65	25.4	1	3	90	0.00	30.160 
21:25	36.0	36.0	36.0	65	25.4	1	3	112	0.00	30.160 
21:30	36.2	36.2	36.2	64	25.2	2	4	112	0.00	30.151 
21:35	36.2	36.2	36.2	64	25.2	1	3	112	0.00	30.151 
21:40	36.2	36.2	36.2	65	25.6	0	1	112	0.00	30.151 
21:45	36.0	36.0	36.0	65	25.4	0	1	112	0.00	30.166 
21:50	35.9	35.9	35.9	65	25.3	0	1	112	0.00	30.166 
21:55	35.8	35.8	35.8	65	25.2	0	1	112	0.00	30.166 
22:00	35.6	35.6	35.6	65	25.0	0	1	112	0.00	30.166 
22:05	35.5	35.5	35.5	65	24.9	0	1	112	0.00	30.166 
22:10	35.5	35.5	35.5	65	24.9	0	1	112	0.00	30.166 
22:15	35.5	35.5	35.5	65	24.9	0	1	112	0.00	30.164 
22:20	35.6	35.6	35.6	65	25.0	0	1	112	0.00	30.164 
22:25	35.6	35.6	35.6	66	25.4	0	1	112	0.00	30.164 
22:30	35.5	35.5	35.5	66	25.3	0	1	112	0.00	30.164 
22:35	35.3	35.3	35.3	66	25.1	0	0	---	0.00	30.164 
22:40	35.3	35.3	35.3	66	25.1	0	1	112	0.00	30.164 
22:45	35.3	35.3	35.3	67	25.5	0	1	112	0.00	30.163 
22:50	35.3	35.3	35.3	66	25.1	1	2	112	0.00	30.163 
22:55	35.3	35.3	35.3	66	25.1	0	1	112	0.00	30.163 
23:00	35.3	35.3	35.3	66	25.1	0	1	112	0.00	30.158 
23:05	35.2	35.2	35.2	66	25.0	0	1	112	0.00	30.158 
23:10	35.2	35.2	35.2	67	25.4	0	1	112	0.00	30.158 
23:15	35.2	35.2	35.2	67	25.4	0	2	112	0.00	30.151 
23:20	35.2	35.2	35.2	67	25.4	1	2	112	0.00	30.151 
23:25	35.2	35.2	35.2	67	25.4	0	2	112	0.00	30.151 
23:30	35.2	35.2	35.2	67	25.4	0	1	112	0.00	30.148 
23:35	35.2	35.2	35.2	68	25.7	0	2	112	0.00	30.148 
23:40	35.2	35.2	35.2	68	25.7	1	2	112	0.00	30.148 
23:45	35.2	35.2	35.2	68	25.7	0	1	135	0.00	30.136 
23:50	35.2	35.2	35.2	68	25.7	1	2	135	0.00	30.136 
23:55	35.3	35.3	35.3	67	25.5	0	2	135	0.00	30.136 

CoCoRaHS
IN-AL-39
A2 Web Hosting
Creative Commons License
GoDaddy
Look for:

loaded 2017-12-10 21:41:20 • last modified 2010-11-18 10:43:29
Privacy PolicyDisclaimer
• wx.awcolley.com is powered by PmWiki v.2002016 •
• all content (unless otherwise noted) © 2017 A W Colley